sensor_id;sensor_type;location;lat;lon;timestamp;P1;durP1;ratioP1;P2;durP2;ratioP2
21239;SDS011;10778;48.962;9.018;2023-04-26T00:00:51;14.23;;;10.35;;
21239;SDS011;10778;48.962;9.018;2023-04-26T00:03:18;12.85;;;9.57;;
21239;SDS011;10778;48.962;9.018;2023-04-26T00:05:45;16.60;;;11.00;;
21239;SDS011;10778;48.962;9.018;2023-04-26T00:08:10;18.83;;;11.07;;
21239;SDS011;10778;48.962;9.018;2023-04-26T00:10:37;15.45;;;10.30;;
21239;SDS011;10778;48.962;9.018;2023-04-26T00:13:05;14.90;;;10.43;;
21239;SDS011;10778;48.962;9.018;2023-04-26T00:15:31;15.23;;;9.90;;
21239;SDS011;10778;48.962;9.018;2023-04-26T00:17:57;16.25;;;11.20;;
21239;SDS011;10778;48.962;9.018;2023-04-26T00:20:23;16.08;;;10.20;;
21239;SDS011;10778;48.962;9.018;2023-04-26T00:22:49;16.70;;;10.52;;
21239;SDS011;10778;48.962;9.018;2023-04-26T00:25:15;16.30;;;10.60;;
21239;SDS011;10778;48.962;9.018;2023-04-26T00:27:42;18.65;;;10.15;;
21239;SDS011;10778;48.962;9.018;2023-04-26T00:30:08;18.63;;;11.23;;
21239;SDS011;10778;48.962;9.018;2023-04-26T00:32:35;17.40;;;10.38;;
21239;SDS011;10778;48.962;9.018;2023-04-26T00:35:04;17.05;;;11.15;;
21239;SDS011;10778;48.962;9.018;2023-04-26T00:37:31;16.73;;;11.27;;
21239;SDS011;10778;48.962;9.018;2023-04-26T00:39:57;15.98;;;10.77;;
21239;SDS011;10778;48.962;9.018;2023-04-26T00:42:23;16.85;;;10.65;;
21239;SDS011;10778;48.962;9.018;2023-04-26T00:44:49;15.80;;;10.27;;
21239;SDS011;10778;48.962;9.018;2023-04-26T00:47:15;18.08;;;10.32;;
21239;SDS011;10778;48.962;9.018;2023-04-26T00:49:41;20.02;;;10.88;;
21239;SDS011;10778;48.962;9.018;2023-04-26T00:52:07;14.98;;;10.55;;
21239;SDS011;10778;48.962;9.018;2023-04-26T00:54:34;15.50;;;10.48;;
21239;SDS011;10778;48.962;9.018;2023-04-26T00:57:00;17.42;;;10.77;;
21239;SDS011;10778;48.962;9.018;2023-04-26T00:59:27;13.55;;;9.73;;
21239;SDS011;10778;48.962;9.018;2023-04-26T01:01:53;14.02;;;9.80;;
21239;SDS011;10778;48.962;9.018;2023-04-26T01:04:19;14.45;;;9.98;;
21239;SDS011;10778;48.962;9.018;2023-04-26T01:06:45;15.85;;;10.15;;
21239;SDS011;10778;48.962;9.018;2023-04-26T01:09:11;14.23;;;9.82;;
21239;SDS011;10778;48.962;9.018;2023-04-26T01:11:39;11.48;;;9.15;;
21239;SDS011;10778;48.962;9.018;2023-04-26T01:14:07;15.23;;;10.15;;
21239;SDS011;10778;48.962;9.018;2023-04-26T01:16:34;13.07;;;9.25;;
21239;SDS011;10778;48.962;9.018;2023-04-26T01:19:10;14.13;;;9.38;;
21239;SDS011;10778;48.962;9.018;2023-04-26T01:21:38;12.15;;;8.85;;
21239;SDS011;10778;48.962;9.018;2023-04-26T01:24:05;13.13;;;9.10;;
21239;SDS011;10778;48.962;9.018;2023-04-26T01:26:31;12.38;;;8.88;;
21239;SDS011;10778;48.962;9.018;2023-04-26T01:28:57;13.80;;;9.43;;
21239;SDS011;10778;48.962;9.018;2023-04-26T01:31:25;13.77;;;9.88;;
21239;SDS011;10778;48.962;9.018;2023-04-26T01:33:51;12.93;;;9.10;;
21239;SDS011;10778;48.962;9.018;2023-04-26T01:36:18;12.85;;;9.85;;
21239;SDS011;10778;48.962;9.018;2023-04-26T01:38:44;13.38;;;9.27;;
21239;SDS011;10778;48.962;9.018;2023-04-26T01:41:10;12.93;;;8.75;;
21239;SDS011;10778;48.962;9.018;2023-04-26T01:43:36;12.75;;;9.55;;
21239;SDS011;10778;48.962;9.018;2023-04-26T01:46:02;11.70;;;9.27;;
21239;SDS011;10778;48.962;9.018;2023-04-26T01:48:28;14.48;;;10.60;;
21239;SDS011;10778;48.962;9.018;2023-04-26T01:50:55;13.77;;;10.38;;
21239;SDS011;10778;48.962;9.018;2023-04-26T01:53:21;14.05;;;9.57;;
21239;SDS011;10778;48.962;9.018;2023-04-26T01:55:47;12.95;;;9.50;;
21239;SDS011;10778;48.962;9.018;2023-04-26T01:58:13;14.85;;;10.13;;
21239;SDS011;10778;48.962;9.018;2023-04-26T02:00:39;19.25;;;11.02;;
21239;SDS011;10778;48.962;9.018;2023-04-26T02:03:05;15.90;;;9.55;;
21239;SDS011;10778;48.962;9.018;2023-04-26T02:05:31;14.68;;;9.50;;
21239;SDS011;10778;48.962;9.018;2023-04-26T02:07:57;15.32;;;9.50;;
21239;SDS011;10778;48.962;9.018;2023-04-26T02:10:23;16.77;;;9.60;;
21239;SDS011;10778;48.962;9.018;2023-04-26T02:12:49;16.08;;;10.35;;
21239;SDS011;10778;48.962;9.018;2023-04-26T02:15:15;15.43;;;10.32;;
21239;SDS011;10778;48.962;9.018;2023-04-26T02:17:41;18.73;;;11.23;;
21239;SDS011;10778;48.962;9.018;2023-04-26T02:20:07;15.23;;;10.25;;
21239;SDS011;10778;48.962;9.018;2023-04-26T02:22:34;15.77;;;10.80;;
21239;SDS011;10778;48.962;9.018;2023-04-26T02:25:01;17.52;;;11.50;;
21239;SDS011;10778;48.962;9.018;2023-04-26T02:27:30;20.67;;;12.15;;
21239;SDS011;10778;48.962;9.018;2023-04-26T02:29:57;19.58;;;12.10;;
21239;SDS011;10778;48.962;9.018;2023-04-26T02:32:24;20.95;;;12.48;;
21239;SDS011;10778;48.962;9.018;2023-04-26T02:34:50;22.83;;;12.65;;
21239;SDS011;10778;48.962;9.018;2023-04-26T02:37:16;22.73;;;13.80;;
21239;SDS011;10778;48.962;9.018;2023-04-26T02:39:42;22.70;;;12.93;;
21239;SDS011;10778;48.962;9.018;2023-04-26T02:42:08;22.08;;;12.80;;
21239;SDS011;10778;48.962;9.018;2023-04-26T02:44:37;22.30;;;13.60;;
21239;SDS011;10778;48.962;9.018;2023-04-26T02:47:04;20.90;;;13.00;;
21239;SDS011;10778;48.962;9.018;2023-04-26T02:49:30;17.80;;;12.38;;
21239;SDS011;10778;48.962;9.018;2023-04-26T02:51:56;23.98;;;14.23;;
21239;SDS011;10778;48.962;9.018;2023-04-26T02:54:23;25.48;;;15.15;;
21239;SDS011;10778;48.962;9.018;2023-04-26T02:56:50;25.73;;;14.68;;
21239;SDS011;10778;48.962;9.018;2023-04-26T02:59:16;24.25;;;14.27;;
21239;SDS011;10778;48.962;9.018;2023-04-26T03:01:42;23.30;;;14.50;;
21239;SDS011;10778;48.962;9.018;2023-04-26T03:04:08;26.17;;;15.27;;
21239;SDS011;10778;48.962;9.018;2023-04-26T03:06:36;29.65;;;16.38;;
21239;SDS011;10778;48.962;9.018;2023-04-26T03:09:02;28.08;;;16.77;;
21239;SDS011;10778;48.962;9.018;2023-04-26T03:11:29;28.67;;;17.13;;
21239;SDS011;10778;48.962;9.018;2023-04-26T03:13:55;29.42;;;16.55;;
21239;SDS011;10778;48.962;9.018;2023-04-26T03:16:21;32.00;;;17.90;;
21239;SDS011;10778;48.962;9.018;2023-04-26T03:18:48;34.92;;;18.10;;
21239;SDS011;10778;48.962;9.018;2023-04-26T03:21:15;29.98;;;17.38;;
21239;SDS011;10778;48.962;9.018;2023-04-26T03:23:41;34.05;;;18.60;;
21239;SDS011;10778;48.962;9.018;2023-04-26T03:26:10;37.45;;;18.85;;
21239;SDS011;10778;48.962;9.018;2023-04-26T03:28:36;34.78;;;18.70;;
21239;SDS011;10778;48.962;9.018;2023-04-26T03:31:03;33.97;;;18.30;;
21239;SDS011;10778;48.962;9.018;2023-04-26T03:33:30;41.15;;;19.65;;
21239;SDS011;10778;48.962;9.018;2023-04-26T03:35:56;37.30;;;19.42;;
21239;SDS011;10778;48.962;9.018;2023-04-26T03:38:22;38.85;;;19.90;;
21239;SDS011;10778;48.962;9.018;2023-04-26T03:40:49;35.03;;;19.95;;
21239;SDS011;10778;48.962;9.018;2023-04-26T03:43:15;39.88;;;19.85;;
21239;SDS011;10778;48.962;9.018;2023-04-26T03:45:41;36.90;;;19.63;;
21239;SDS011;10778;48.962;9.018;2023-04-26T03:48:07;43.65;;;18.80;;
21239;SDS011;10778;48.962;9.018;2023-04-26T03:50:33;35.92;;;18.98;;
21239;SDS011;10778;48.962;9.018;2023-04-26T03:52:59;38.20;;;19.65;;
21239;SDS011;10778;48.962;9.018;2023-04-26T03:55:25;34.47;;;19.35;;
21239;SDS011;10778;48.962;9.018;2023-04-26T03:57:51;43.38;;;18.50;;
21239;SDS011;10778;48.962;9.018;2023-04-26T04:00:18;35.00;;;18.90;;
21239;SDS011;10778;48.962;9.018;2023-04-26T04:02:47;34.85;;;18.15;;
21239;SDS011;10778;48.962;9.018;2023-04-26T04:05:21;35.47;;;18.08;;
21239;SDS011;10778;48.962;9.018;2023-04-26T04:07:48;51.92;;;18.83;;
21239;SDS011;10778;48.962;9.018;2023-04-26T04:10:14;41.03;;;18.90;;
21239;SDS011;10778;48.962;9.018;2023-04-26T04:12:45;32.67;;;18.40;;
21239;SDS011;10778;48.962;9.018;2023-04-26T04:15:11;34.88;;;18.92;;
21239;SDS011;10778;48.962;9.018;2023-04-26T04:17:42;35.08;;;19.73;;
21239;SDS011;10778;48.962;9.018;2023-04-26T04:20:10;34.05;;;18.88;;
21239;SDS011;10778;48.962;9.018;2023-04-26T04:22:37;37.63;;;19.90;;
21239;SDS011;10778;48.962;9.018;2023-04-26T04:25:06;36.92;;;18.10;;
21239;SDS011;10778;48.962;9.018;2023-04-26T04:27:35;35.90;;;18.55;;
21239;SDS011;10778;48.962;9.018;2023-04-26T04:30:02;33.08;;;18.42;;
21239;SDS011;10778;48.962;9.018;2023-04-26T04:32:32;35.05;;;18.35;;
21239;SDS011;10778;48.962;9.018;2023-04-26T04:34:58;36.75;;;18.50;;
21239;SDS011;10778;48.962;9.018;2023-04-26T04:37:24;32.13;;;18.33;;
21239;SDS011;10778;48.962;9.018;2023-04-26T04:39:51;34.67;;;17.88;;
21239;SDS011;10778;48.962;9.018;2023-04-26T04:42:18;31.80;;;18.27;;
21239;SDS011;10778;48.962;9.018;2023-04-26T04:44:44;36.50;;;19.75;;
21239;SDS011;10778;48.962;9.018;2023-04-26T04:47:11;36.78;;;18.92;;
21239;SDS011;10778;48.962;9.018;2023-04-26T04:49:37;32.10;;;18.75;;
21239;SDS011;10778;48.962;9.018;2023-04-26T04:52:04;36.38;;;19.25;;
21239;SDS011;10778;48.962;9.018;2023-04-26T04:54:32;35.13;;;19.33;;
21239;SDS011;10778;48.962;9.018;2023-04-26T04:56:59;37.30;;;19.08;;
21239;SDS011;10778;48.962;9.018;2023-04-26T04:59:27;39.78;;;18.73;;
21239;SDS011;10778;48.962;9.018;2023-04-26T05:01:53;31.08;;;17.58;;
21239;SDS011;10778;48.962;9.018;2023-04-26T05:04:19;33.17;;;18.25;;
21239;SDS011;10778;48.962;9.018;2023-04-26T05:06:45;41.92;;;19.75;;
21239;SDS011;10778;48.962;9.018;2023-04-26T05:09:11;37.15;;;19.63;;
21239;SDS011;10778;48.962;9.018;2023-04-26T05:11:37;40.08;;;20.35;;
21239;SDS011;10778;48.962;9.018;2023-04-26T05:14:04;37.30;;;19.45;;
21239;SDS011;10778;48.962;9.018;2023-04-26T05:16:30;35.53;;;20.02;;
21239;SDS011;10778;48.962;9.018;2023-04-26T05:18:57;36.58;;;20.05;;
21239;SDS011;10778;48.962;9.018;2023-04-26T05:21:23;34.97;;;19.65;;
21239;SDS011;10778;48.962;9.018;2023-04-26T05:23:50;33.70;;;19.30;;
21239;SDS011;10778;48.962;9.018;2023-04-26T05:26:17;34.55;;;20.45;;
21239;SDS011;10778;48.962;9.018;2023-04-26T05:28:51;34.13;;;19.35;;
21239;SDS011;10778;48.962;9.018;2023-04-26T05:31:37;34.25;;;19.27;;
21239;SDS011;10778;48.962;9.018;2023-04-26T05:34:32;38.05;;;20.05;;
21239;SDS011;10778;48.962;9.018;2023-04-26T05:36:58;32.45;;;18.67;;
21239;SDS011;10778;48.962;9.018;2023-04-26T05:39:24;33.72;;;20.15;;
21239;SDS011;10778;48.962;9.018;2023-04-26T05:41:50;37.75;;;21.52;;
21239;SDS011;10778;48.962;9.018;2023-04-26T05:44:17;39.00;;;21.13;;
21239;SDS011;10778;48.962;9.018;2023-04-26T05:46:43;36.17;;;22.08;;
21239;SDS011;10778;48.962;9.018;2023-04-26T05:49:10;34.22;;;20.58;;
21239;SDS011;10778;48.962;9.018;2023-04-26T05:51:36;35.22;;;20.50;;
21239;SDS011;10778;48.962;9.018;2023-04-26T05:54:03;38.67;;;22.50;;
21239;SDS011;10778;48.962;9.018;2023-04-26T05:56:29;34.88;;;21.02;;
21239;SDS011;10778;48.962;9.018;2023-04-26T05:58:56;33.45;;;20.58;;
21239;SDS011;10778;48.962;9.018;2023-04-26T06:01:22;33.83;;;19.75;;
21239;SDS011;10778;48.962;9.018;2023-04-26T06:03:49;34.05;;;19.70;;
21239;SDS011;10778;48.962;9.018;2023-04-26T06:06:18;37.00;;;20.90;;
21239;SDS011;10778;48.962;9.018;2023-04-26T06:08:45;33.10;;;18.80;;
21239;SDS011;10778;48.962;9.018;2023-04-26T06:11:11;33.83;;;19.73;;
21239;SDS011;10778;48.962;9.018;2023-04-26T06:13:37;33.97;;;20.15;;
21239;SDS011;10778;48.962;9.018;2023-04-26T06:16:04;30.60;;;18.90;;
21239;SDS011;10778;48.962;9.018;2023-04-26T06:18:30;29.75;;;18.85;;
21239;SDS011;10778;48.962;9.018;2023-04-26T06:20:56;31.85;;;19.42;;
21239;SDS011;10778;48.962;9.018;2023-04-26T06:23:23;29.27;;;18.05;;
21239;SDS011;10778;48.962;9.018;2023-04-26T06:25:49;30.85;;;18.73;;
21239;SDS011;10778;48.962;9.018;2023-04-26T06:28:15;30.73;;;18.90;;
21239;SDS011;10778;48.962;9.018;2023-04-26T06:30:42;32.72;;;19.55;;
21239;SDS011;10778;48.962;9.018;2023-04-26T06:33:08;28.50;;;18.02;;
21239;SDS011;10778;48.962;9.018;2023-04-26T06:35:41;25.30;;;17.30;;
21239;SDS011;10778;48.962;9.018;2023-04-26T06:38:08;27.85;;;17.15;;
21239;SDS011;10778;48.962;9.018;2023-04-26T06:40:37;23.50;;;15.98;;
21239;SDS011;10778;48.962;9.018;2023-04-26T06:43:03;27.33;;;16.13;;
21239;SDS011;10778;48.962;9.018;2023-04-26T06:45:52;22.40;;;15.10;;
21239;SDS011;10778;48.962;9.018;2023-04-26T06:48:19;22.17;;;14.88;;
21239;SDS011;10778;48.962;9.018;2023-04-26T06:50:45;23.90;;;15.82;;
21239;SDS011;10778;48.962;9.018;2023-04-26T06:53:11;21.73;;;14.38;;
21239;SDS011;10778;48.962;9.018;2023-04-26T06:55:37;20.25;;;14.60;;
21239;SDS011;10778;48.962;9.018;2023-04-26T06:58:03;22.05;;;14.98;;
21239;SDS011;10778;48.962;9.018;2023-04-26T07:00:29;23.25;;;15.25;;
21239;SDS011;10778;48.962;9.018;2023-04-26T07:02:55;23.85;;;15.55;;
21239;SDS011;10778;48.962;9.018;2023-04-26T07:05:21;24.50;;;16.15;;
21239;SDS011;10778;48.962;9.018;2023-04-26T07:07:47;22.70;;;13.82;;
21239;SDS011;10778;48.962;9.018;2023-04-26T07:10:14;20.23;;;14.30;;
21239;SDS011;10778;48.962;9.018;2023-04-26T07:12:40;19.23;;;11.93;;
21239;SDS011;10778;48.962;9.018;2023-04-26T07:15:06;17.48;;;11.82;;
21239;SDS011;10778;48.962;9.018;2023-04-26T07:17:33;16.67;;;10.65;;
21239;SDS011;10778;48.962;9.018;2023-04-26T07:19:59;16.77;;;11.02;;
21239;SDS011;10778;48.962;9.018;2023-04-26T07:22:25;15.80;;;10.60;;
21239;SDS011;10778;48.962;9.018;2023-04-26T07:24:51;15.02;;;9.90;;
21239;SDS011;10778;48.962;9.018;2023-04-26T07:27:17;15.15;;;9.43;;
21239;SDS011;10778;48.962;9.018;2023-04-26T07:29:43;13.27;;;8.20;;
21239;SDS011;10778;48.962;9.018;2023-04-26T07:32:09;11.40;;;8.07;;
21239;SDS011;10778;48.962;9.018;2023-04-26T07:34:35;9.60;;;7.18;;
21239;SDS011;10778;48.962;9.018;2023-04-26T07:37:02;10.38;;;6.22;;
21239;SDS011;10778;48.962;9.018;2023-04-26T07:39:28;11.50;;;6.70;;
21239;SDS011;10778;48.962;9.018;2023-04-26T07:41:54;10.65;;;6.18;;
21239;SDS011;10778;48.962;9.018;2023-04-26T07:44:20;9.30;;;5.22;;
21239;SDS011;10778;48.962;9.018;2023-04-26T07:46:46;9.88;;;5.22;;
21239;SDS011;10778;48.962;9.018;2023-04-26T07:49:12;7.18;;;4.55;;
21239;SDS011;10778;48.962;9.018;2023-04-26T07:51:38;8.50;;;4.70;;
21239;SDS011;10778;48.962;9.018;2023-04-26T07:54:05;8.05;;;4.50;;
21239;SDS011;10778;48.962;9.018;2023-04-26T07:56:31;11.45;;;5.22;;
21239;SDS011;10778;48.962;9.018;2023-04-26T07:58:57;8.35;;;4.43;;
21239;SDS011;10778;48.962;9.018;2023-04-26T08:01:23;7.70;;;4.57;;
21239;SDS011;10778;48.962;9.018;2023-04-26T08:03:49;8.73;;;4.00;;
21239;SDS011;10778;48.962;9.018;2023-04-26T08:06:15;8.07;;;4.18;;
21239;SDS011;10778;48.962;9.018;2023-04-26T08:08:41;7.45;;;4.28;;
21239;SDS011;10778;48.962;9.018;2023-04-26T08:11:10;10.77;;;4.63;;
21239;SDS011;10778;48.962;9.018;2023-04-26T08:13:36;9.73;;;4.20;;
21239;SDS011;10778;48.962;9.018;2023-04-26T08:16:02;8.27;;;4.45;;
21239;SDS011;10778;48.962;9.018;2023-04-26T08:18:28;8.15;;;3.90;;
21239;SDS011;10778;48.962;9.018;2023-04-26T08:20:54;10.18;;;4.82;;
21239;SDS011;10778;48.962;9.018;2023-04-26T08:23:20;10.55;;;4.40;;
21239;SDS011;10778;48.962;9.018;2023-04-26T08:25:47;11.32;;;4.53;;
21239;SDS011;10778;48.962;9.018;2023-04-26T08:28:15;11.75;;;4.30;;
21239;SDS011;10778;48.962;9.018;2023-04-26T08:30:41;8.30;;;4.30;;
21239;SDS011;10778;48.962;9.018;2023-04-26T08:33:10;7.97;;;4.10;;
21239;SDS011;10778;48.962;9.018;2023-04-26T08:35:36;8.00;;;3.97;;
21239;SDS011;10778;48.962;9.018;2023-04-26T08:38:02;7.85;;;3.92;;
21239;SDS011;10778;48.962;9.018;2023-04-26T08:40:28;8.55;;;4.03;;
21239;SDS011;10778;48.962;9.018;2023-04-26T08:42:54;10.63;;;3.95;;
21239;SDS011;10778;48.962;9.018;2023-04-26T08:45:20;8.02;;;4.32;;
21239;SDS011;10778;48.962;9.018;2023-04-26T08:47:47;7.88;;;4.05;;
21239;SDS011;10778;48.962;9.018;2023-04-26T08:50:18;6.45;;;4.00;;
21239;SDS011;10778;48.962;9.018;2023-04-26T08:52:46;8.20;;;4.18;;
21239;SDS011;10778;48.962;9.018;2023-04-26T08:55:14;6.60;;;3.78;;
21239;SDS011;10778;48.962;9.018;2023-04-26T08:57:42;8.50;;;4.32;;
21239;SDS011;10778;48.962;9.018;2023-04-26T09:00:12;9.07;;;4.18;;
21239;SDS011;10778;48.962;9.018;2023-04-26T09:02:39;10.88;;;4.10;;
21239;SDS011;10778;48.962;9.018;2023-04-26T09:05:07;9.93;;;3.88;;
21239;SDS011;10778;48.962;9.018;2023-04-26T09:07:36;9.55;;;4.20;;
21239;SDS011;10778;48.962;9.018;2023-04-26T09:10:05;7.50;;;3.65;;
21239;SDS011;10778;48.962;9.018;2023-04-26T09:12:32;8.30;;;3.42;;
21239;SDS011;10778;48.962;9.018;2023-04-26T09:14:59;9.25;;;3.97;;
21239;SDS011;10778;48.962;9.018;2023-04-26T09:17:30;7.10;;;3.55;;
21239;SDS011;10778;48.962;9.018;2023-04-26T09:19:58;9.02;;;3.50;;
21239;SDS011;10778;48.962;9.018;2023-04-26T09:22:29;9.98;;;3.67;;
21239;SDS011;10778;48.962;9.018;2023-04-26T09:24:59;8.73;;;3.88;;
21239;SDS011;10778;48.962;9.018;2023-04-26T09:27:37;10.07;;;3.88;;
21239;SDS011;10778;48.962;9.018;2023-04-26T09:30:08;8.57;;;3.42;;
21239;SDS011;10778;48.962;9.018;2023-04-26T09:35:31;7.43;;;3.30;;
21239;SDS011;10778;48.962;9.018;2023-04-26T09:37:57;5.15;;;3.08;;
21239;SDS011;10778;48.962;9.018;2023-04-26T09:40:41;8.80;;;4.00;;
21239;SDS011;10778;48.962;9.018;2023-04-26T09:43:09;9.20;;;4.22;;
21239;SDS011;10778;48.962;9.018;2023-04-26T09:48:15;8.00;;;3.58;;
21239;SDS011;10778;48.962;9.018;2023-04-26T09:55:54;9.82;;;3.80;;
21239;SDS011;10778;48.962;9.018;2023-04-26T09:58:20;7.25;;;3.50;;
21239;SDS011;10778;48.962;9.018;2023-04-26T10:00:51;8.32;;;3.47;;
21239;SDS011;10778;48.962;9.018;2023-04-26T10:03:18;6.05;;;3.53;;
21239;SDS011;10778;48.962;9.018;2023-04-26T10:05:45;6.30;;;3.58;;
21239;SDS011;10778;48.962;9.018;2023-04-26T10:08:12;9.30;;;3.78;;
21239;SDS011;10778;48.962;9.018;2023-04-26T10:10:38;7.70;;;3.55;;
21239;SDS011;10778;48.962;9.018;2023-04-26T10:13:05;8.95;;;3.78;;
21239;SDS011;10778;48.962;9.018;2023-04-26T10:15:31;6.85;;;3.60;;
21239;SDS011;10778;48.962;9.018;2023-04-26T10:17:58;8.05;;;3.60;;
21239;SDS011;10778;48.962;9.018;2023-04-26T10:20:26;9.55;;;3.65;;
21239;SDS011;10778;48.962;9.018;2023-04-26T10:22:53;7.32;;;3.58;;
21239;SDS011;10778;48.962;9.018;2023-04-26T10:25:36;8.45;;;3.42;;
21239;SDS011;10778;48.962;9.018;2023-04-26T10:28:03;7.30;;;3.60;;
21239;SDS011;10778;48.962;9.018;2023-04-26T10:30:30;9.10;;;3.53;;
21239;SDS011;10778;48.962;9.018;2023-04-26T10:35:23;6.45;;;3.20;;
21239;SDS011;10778;48.962;9.018;2023-04-26T10:40:26;7.07;;;3.35;;
21239;SDS011;10778;48.962;9.018;2023-04-26T10:45:35;6.60;;;2.83;;
21239;SDS011;10778;48.962;9.018;2023-04-26T10:53:25;7.45;;;3.33;;
21239;SDS011;10778;48.962;9.018;2023-04-26T10:55:54;8.52;;;3.40;;
21239;SDS011;10778;48.962;9.018;2023-04-26T10:58:33;8.32;;;3.22;;
21239;SDS011;10778;48.962;9.018;2023-04-26T11:01:12;6.82;;;3.22;;
21239;SDS011;10778;48.962;9.018;2023-04-26T11:06:22;6.82;;;2.95;;
21239;SDS011;10778;48.962;9.018;2023-04-26T11:08:48;8.05;;;3.17;;
21239;SDS011;10778;48.962;9.018;2023-04-26T11:11:15;6.47;;;2.83;;
21239;SDS011;10778;48.962;9.018;2023-04-26T11:13:44;5.22;;;2.95;;
21239;SDS011;10778;48.962;9.018;2023-04-26T11:16:15;7.47;;;2.95;;
21239;SDS011;10778;48.962;9.018;2023-04-26T11:18:43;7.53;;;3.15;;
21239;SDS011;10778;48.962;9.018;2023-04-26T11:21:10;8.55;;;3.03;;
21239;SDS011;10778;48.962;9.018;2023-04-26T11:23:37;6.88;;;2.95;;
21239;SDS011;10778;48.962;9.018;2023-04-26T11:26:04;6.60;;;2.90;;
21239;SDS011;10778;48.962;9.018;2023-04-26T11:28:36;5.90;;;2.80;;
21239;SDS011;10778;48.962;9.018;2023-04-26T11:31:04;7.55;;;2.90;;
21239;SDS011;10778;48.962;9.018;2023-04-26T11:33:31;5.45;;;2.70;;
21239;SDS011;10778;48.962;9.018;2023-04-26T11:35:58;5.97;;;2.60;;
21239;SDS011;10778;48.962;9.018;2023-04-26T11:38:25;5.38;;;2.67;;
21239;SDS011;10778;48.962;9.018;2023-04-26T11:40:59;6.40;;;2.30;;
21239;SDS011;10778;48.962;9.018;2023-04-26T11:43:33;4.22;;;2.30;;
21239;SDS011;10778;48.962;9.018;2023-04-26T11:46:03;5.70;;;2.40;;
21239;SDS011;10778;48.962;9.018;2023-04-26T11:48:30;5.70;;;2.53;;
21239;SDS011;10778;48.962;9.018;2023-04-26T11:50:58;4.75;;;2.83;;
21239;SDS011;10778;48.962;9.018;2023-04-26T11:53:37;6.35;;;2.55;;
21239;SDS011;10778;48.962;9.018;2023-04-26T11:56:11;5.18;;;2.90;;
21239;SDS011;10778;48.962;9.018;2023-04-26T11:58:48;5.13;;;2.80;;
21239;SDS011;10778;48.962;9.018;2023-04-26T12:01:25;5.85;;;2.95;;
21239;SDS011;10778;48.962;9.018;2023-04-26T12:03:53;6.25;;;3.00;;
21239;SDS011;10778;48.962;9.018;2023-04-26T12:06:24;5.25;;;2.60;;
21239;SDS011;10778;48.962;9.018;2023-04-26T12:08:55;7.32;;;2.53;;
21239;SDS011;10778;48.962;9.018;2023-04-26T12:11:21;7.40;;;2.90;;
21239;SDS011;10778;48.962;9.018;2023-04-26T12:13:47;6.15;;;2.83;;
21239;SDS011;10778;48.962;9.018;2023-04-26T12:16:13;6.85;;;2.63;;
21239;SDS011;10778;48.962;9.018;2023-04-26T12:18:39;8.52;;;2.85;;
21239;SDS011;10778;48.962;9.018;2023-04-26T12:21:06;7.55;;;3.03;;
21239;SDS011;10778;48.962;9.018;2023-04-26T12:23:36;7.50;;;2.70;;
21239;SDS011;10778;48.962;9.018;2023-04-26T12:26:04;5.68;;;2.78;;
21239;SDS011;10778;48.962;9.018;2023-04-26T12:28:30;5.40;;;2.80;;
21239;SDS011;10778;48.962;9.018;2023-04-26T12:30:56;7.20;;;2.97;;
21239;SDS011;10778;48.962;9.018;2023-04-26T12:33:22;8.27;;;3.10;;
21239;SDS011;10778;48.962;9.018;2023-04-26T12:35:49;7.13;;;2.97;;
21239;SDS011;10778;48.962;9.018;2023-04-26T12:38:16;5.15;;;2.85;;
21239;SDS011;10778;48.962;9.018;2023-04-26T12:40:43;8.70;;;2.88;;
21239;SDS011;10778;48.962;9.018;2023-04-26T12:43:09;8.77;;;2.90;;
21239;SDS011;10778;48.962;9.018;2023-04-26T12:45:35;5.80;;;2.60;;
21239;SDS011;10778;48.962;9.018;2023-04-26T12:48:01;5.15;;;2.70;;
21239;SDS011;10778;48.962;9.018;2023-04-26T12:50:28;6.20;;;2.60;;
21239;SDS011;10778;48.962;9.018;2023-04-26T12:52:54;7.35;;;2.80;;
21239;SDS011;10778;48.962;9.018;2023-04-26T12:55:20;5.35;;;2.60;;
21239;SDS011;10778;48.962;9.018;2023-04-26T12:57:46;5.78;;;2.65;;
21239;SDS011;10778;48.962;9.018;2023-04-26T13:00:13;5.40;;;2.50;;
21239;SDS011;10778;48.962;9.018;2023-04-26T13:02:40;6.82;;;2.85;;
21239;SDS011;10778;48.962;9.018;2023-04-26T13:05:09;8.45;;;2.50;;
21239;SDS011;10778;48.962;9.018;2023-04-26T13:07:36;5.22;;;2.80;;
21239;SDS011;10778;48.962;9.018;2023-04-26T13:10:04;9.23;;;3.17;;
21239;SDS011;10778;48.962;9.018;2023-04-26T13:12:31;7.30;;;2.90;;
21239;SDS011;10778;48.962;9.018;2023-04-26T13:14:57;7.25;;;2.80;;
21239;SDS011;10778;48.962;9.018;2023-04-26T13:17:25;6.38;;;2.45;;
21239;SDS011;10778;48.962;9.018;2023-04-26T13:19:52;5.70;;;2.70;;
21239;SDS011;10778;48.962;9.018;2023-04-26T13:22:19;5.35;;;2.17;;
21239;SDS011;10778;48.962;9.018;2023-04-26T13:24:45;5.22;;;2.47;;
21239;SDS011;10778;48.962;9.018;2023-04-26T13:27:11;4.90;;;2.40;;
21239;SDS011;10778;48.962;9.018;2023-04-26T13:29:38;3.85;;;2.35;;
21239;SDS011;10778;48.962;9.018;2023-04-26T13:32:05;5.88;;;2.60;;
21239;SDS011;10778;48.962;9.018;2023-04-26T13:34:31;5.38;;;2.40;;
21239;SDS011;10778;48.962;9.018;2023-04-26T13:37:00;5.47;;;2.30;;
21239;SDS011;10778;48.962;9.018;2023-04-26T13:39:28;6.18;;;2.60;;
21239;SDS011;10778;48.962;9.018;2023-04-26T13:41:54;8.27;;;2.50;;
21239;SDS011;10778;48.962;9.018;2023-04-26T13:44:20;7.53;;;3.00;;
21239;SDS011;10778;48.962;9.018;2023-04-26T13:46:46;5.57;;;2.20;;
21239;SDS011;10778;48.962;9.018;2023-04-26T13:49:12;6.07;;;2.67;;
21239;SDS011;10778;48.962;9.018;2023-04-26T13:51:39;7.78;;;2.50;;
21239;SDS011;10778;48.962;9.018;2023-04-26T13:54:05;6.30;;;2.38;;
21239;SDS011;10778;48.962;9.018;2023-04-26T13:56:31;5.75;;;2.40;;
21239;SDS011;10778;48.962;9.018;2023-04-26T13:58:58;8.68;;;2.80;;
21239;SDS011;10778;48.962;9.018;2023-04-26T14:01:28;5.20;;;2.70;;
21239;SDS011;10778;48.962;9.018;2023-04-26T14:03:54;5.78;;;2.50;;
21239;SDS011;10778;48.962;9.018;2023-04-26T14:06:20;5.97;;;2.50;;
21239;SDS011;10778;48.962;9.018;2023-04-26T14:08:46;7.45;;;2.72;;
21239;SDS011;10778;48.962;9.018;2023-04-26T14:11:13;5.35;;;2.63;;
21239;SDS011;10778;48.962;9.018;2023-04-26T14:13:39;7.40;;;2.95;;
21239;SDS011;10778;48.962;9.018;2023-04-26T14:16:07;6.22;;;2.50;;
21239;SDS011;10778;48.962;9.018;2023-04-26T14:18:33;6.35;;;2.60;;
21239;SDS011;10778;48.962;9.018;2023-04-26T14:20:59;5.38;;;2.65;;
21239;SDS011;10778;48.962;9.018;2023-04-26T14:23:31;4.15;;;2.30;;
21239;SDS011;10778;48.962;9.018;2023-04-26T14:25:57;5.13;;;2.50;;
21239;SDS011;10778;48.962;9.018;2023-04-26T14:28:23;6.15;;;2.38;;
21239;SDS011;10778;48.962;9.018;2023-04-26T14:30:49;7.60;;;2.45;;
21239;SDS011;10778;48.962;9.018;2023-04-26T14:33:15;3.60;;;2.08;;
21239;SDS011;10778;48.962;9.018;2023-04-26T14:35:41;6.88;;;2.38;;
21239;SDS011;10778;48.962;9.018;2023-04-26T14:38:07;4.60;;;2.17;;
21239;SDS011;10778;48.962;9.018;2023-04-26T14:40:34;6.18;;;2.55;;
21239;SDS011;10778;48.962;9.018;2023-04-26T14:43:02;3.10;;;2.10;;
21239;SDS011;10778;48.962;9.018;2023-04-26T14:45:27;5.43;;;2.15;;
21239;SDS011;10778;48.962;9.018;2023-04-26T14:47:54;4.40;;;2.28;;
21239;SDS011;10778;48.962;9.018;2023-04-26T14:50:20;6.18;;;2.20;;
21239;SDS011;10778;48.962;9.018;2023-04-26T14:52:46;3.03;;;1.90;;
21239;SDS011;10778;48.962;9.018;2023-04-26T14:55:16;7.18;;;2.33;;
21239;SDS011;10778;48.962;9.018;2023-04-26T14:57:43;4.90;;;1.98;;
21239;SDS011;10778;48.962;9.018;2023-04-26T15:00:09;6.13;;;2.20;;
21239;SDS011;10778;48.962;9.018;2023-04-26T15:02:40;4.03;;;1.80;;